createdAt,value
2022-11-05T00:00:37.136Z,6.01
2022-11-05T00:03:22.766Z,5.98
2022-11-05T00:06:10.752Z,5.98
2022-11-05T00:08:56.405Z,5.97
2022-11-05T00:11:42.929Z,5.99
2022-11-05T00:14:28.429Z,5.99
2022-11-05T00:16:55.851Z,5.94
2022-11-05T00:19:23.150Z,5.95
2022-11-05T00:22:08.417Z,5.95
2022-11-05T00:24:53.832Z,5.93
2022-11-05T00:27:23.332Z,5.93
2022-11-05T00:29:50.619Z,5.92
2022-11-05T00:32:17.138Z,5.93
2022-11-05T00:34:43.865Z,5.96
2022-11-05T00:37:12.056Z,5.99
2022-11-05T00:39:38.763Z,5.95
2022-11-05T00:42:24.582Z,6.02
2022-11-05T00:45:03.263Z,6.04
2022-11-05T00:47:50.714Z,6.07
2022-11-05T00:50:19.583Z,6.10
2022-11-05T00:52:57.667Z,6.12
2022-11-05T00:55:35.607Z,6.11
2022-11-05T00:58:04.856Z,6.09
2022-11-05T01:00:34.659Z,6.10
2022-11-05T01:03:13.330Z,6.09
2022-11-05T01:05:45.157Z,6.12
2022-11-05T01:08:21.702Z,6.04
2022-11-05T01:10:58.920Z,6.01
2022-11-05T01:13:31.681Z,5.96
2022-11-05T01:16:04.492Z,5.98
2022-11-05T01:18:31.618Z,5.95
2022-11-05T01:20:58.384Z,5.93
2022-11-05T01:23:25.428Z,5.87
2022-11-05T01:25:52.876Z,5.86
2022-11-05T01:28:19.994Z,5.81
2022-11-05T01:30:46.654Z,5.77
2022-11-05T01:33:13.639Z,5.73
2022-11-05T01:35:41.008Z,5.66
2022-11-05T01:38:10.898Z,5.60
2022-11-05T01:40:43.184Z,5.58
2022-11-05T01:43:15.941Z,5.52
2022-11-05T01:45:49.899Z,5.51
2022-11-05T01:48:21.774Z,5.45
2022-11-05T01:50:59.617Z,5.43
2022-11-05T01:53:44.994Z,5.41
2022-11-05T01:56:15.195Z,5.37
2022-11-05T01:59:17.311Z,5.30
2022-11-05T02:01:45.266Z,5.31
2022-11-05T02:04:17.956Z,5.26
2022-11-05T02:06:48.150Z,5.23
2022-11-05T02:09:30.186Z,5.22
2022-11-05T02:11:58.816Z,5.16
2022-11-05T02:14:27.270Z,5.12
2022-11-05T02:17:04.018Z,5.09
2022-11-05T02:19:55.760Z,5.05
2022-11-05T02:22:37.622Z,5.02
2022-11-05T02:25:44.731Z,5.00
2022-11-05T02:28:52.481Z,4.96
2022-11-05T02:31:54.834Z,4.91
2022-11-05T02:34:40.791Z,4.87
2022-11-05T02:37:33.813Z,4.79
2022-11-05T02:40:15.377Z,4.79
2022-11-05T02:43:07.918Z,4.77
2022-11-05T02:45:52.025Z,4.76
2022-11-05T02:49:00.161Z,4.72
2022-11-05T02:51:36.422Z,4.68
2022-11-05T02:54:16.742Z,4.67
2022-11-05T02:56:48.318Z,4.64
2022-11-05T02:59:17.531Z,4.62
2022-11-05T03:01:47.112Z,4.61
2022-11-05T03:04:17.893Z,4.59
2022-11-05T03:07:12.382Z,4.57
2022-11-05T03:10:25.534Z,4.52
2022-11-05T03:13:05.313Z,4.47
2022-11-05T03:15:44.843Z,4.46
2022-11-05T03:18:24.917Z,4.41
2022-11-05T03:21:01.672Z,4.41
2022-11-05T03:23:40.686Z,4.41
2022-11-05T03:26:26.866Z,4.39
2022-11-05T03:29:04.751Z,4.37
2022-11-05T03:31:33.138Z,4.32
2022-11-05T03:34:03.453Z,4.30
2022-11-05T03:36:45.672Z,4.31
2022-11-05T03:39:45.659Z,4.30
2022-11-05T03:42:15.936Z,4.28
2022-11-05T03:44:50.220Z,4.25
2022-11-05T03:47:25.804Z,4.21
2022-11-05T03:50:08.134Z,4.22
2022-11-05T03:52:47.218Z,4.13
2022-11-05T03:55:15.193Z,4.16
2022-11-05T03:57:47.091Z,4.19
2022-11-05T04:00:17.070Z,4.15
2022-11-05T04:02:43.944Z,4.16
2022-11-05T04:05:13.102Z,4.15
2022-11-05T04:07:58.598Z,4.16
2022-11-05T04:10:44.574Z,4.14
2022-11-05T04:13:27.832Z,4.13
2022-11-05T04:16:15.786Z,4.11
2022-11-05T04:18:43.091Z,4.08
2022-11-05T04:21:32.150Z,4.03
2022-11-05T04:24:10.961Z,4.03
2022-11-05T04:26:47.401Z,3.99
2022-11-05T04:29:32.765Z,3.97
2022-11-05T04:32:00.052Z,3.96
2022-11-05T04:34:30.201Z,3.92
2022-11-05T04:36:57.260Z,3.90
2022-11-05T04:39:23.879Z,3.89
2022-11-05T04:41:51.187Z,3.85
2022-11-05T04:44:20.193Z,3.81
2022-11-05T04:46:47.110Z,3.79
2022-11-05T04:49:14.294Z,3.77
2022-11-05T04:51:41.393Z,3.72
2022-11-05T04:54:08.669Z,3.69
2022-11-05T04:56:35.728Z,3.71
2022-11-05T04:59:02.245Z,3.70
2022-11-05T05:01:29.045Z,3.69
2022-11-05T05:03:56.687Z,3.68
2022-11-05T05:06:23.488Z,3.67
2022-11-05T05:08:51.715Z,3.67
2022-11-05T05:11:20.929Z,3.64
2022-11-05T05:13:51.117Z,3.63
2022-11-05T05:16:26.810Z,3.61
2022-11-05T05:18:56.660Z,3.58
2022-11-05T05:21:38.486Z,3.56
2022-11-05T05:24:15.610Z,3.55
2022-11-05T05:26:48.042Z,3.54
2022-11-05T05:29:16.465Z,3.52
2022-11-05T05:31:45.828Z,3.50
2022-11-05T05:34:16.083Z,3.50
2022-11-05T05:36:43.558Z,3.48
2022-11-05T05:39:12.972Z,3.48
2022-11-05T05:41:40.001Z,3.45
2022-11-05T05:44:06.905Z,3.41
2022-11-05T05:46:33.985Z,3.38
2022-11-05T05:49:01.312Z,3.37
2022-11-05T05:51:28.183Z,3.35
2022-11-05T05:53:55.459Z,3.33
2022-11-05T05:56:26.358Z,3.29
2022-11-05T05:58:55.327Z,3.25
2022-11-05T06:01:23.065Z,3.21
2022-11-05T06:03:51.033Z,3.19
2022-11-05T06:06:20.245Z,3.17
2022-11-05T06:08:47.697Z,3.16
2022-11-05T06:11:16.983Z,3.16
2022-11-05T06:13:44.719Z,3.11
2022-11-05T06:16:12.206Z,3.12
2022-11-05T06:18:39.413Z,3.08
2022-11-05T06:21:12.340Z,3.07
2022-11-05T06:23:41.321Z,3.12
2022-11-05T06:26:14.623Z,3.07
2022-11-05T06:28:42.297Z,3.07
2022-11-05T06:31:13.487Z,3.10
2022-11-05T06:33:46.734Z,3.04
2022-11-05T06:36:16.838Z,3.04
2022-11-05T06:38:45.907Z,2.97
2022-11-05T06:41:12.902Z,2.98
2022-11-05T06:43:41.710Z,2.97
2022-11-05T06:46:11.796Z,3.02
2022-11-05T06:48:40.072Z,3.01
2022-11-05T06:51:08.108Z,3.00
2022-11-05T06:53:35.927Z,3.01
2022-11-05T06:56:10.145Z,3.00
2022-11-05T06:58:41.865Z,3.01
2022-11-05T07:01:12.210Z,3.02
2022-11-05T07:03:39.395Z,3.00
2022-11-05T07:06:07.564Z,3.08
2022-11-05T07:08:49.895Z,3.11
2022-11-05T07:11:19.204Z,3.11
2022-11-05T07:13:50.308Z,3.15
2022-11-05T07:16:18.975Z,3.12
2022-11-05T07:18:49.946Z,3.14
2022-11-05T07:21:16.871Z,3.20
2022-11-05T07:23:47.634Z,3.21
2022-11-05T07:26:15.144Z,3.23
2022-11-05T07:28:44.856Z,3.28
2022-11-05T07:31:12.291Z,3.28
2022-11-05T07:33:39.506Z,3.36
2022-11-05T07:36:06.226Z,3.45
2022-11-05T07:38:32.929Z,3.49
2022-11-05T07:41:00.430Z,3.52
2022-11-05T07:43:27.418Z,3.58
2022-11-05T07:45:54.171Z,3.62
2022-11-05T07:48:21.017Z,3.64
2022-11-05T07:50:54.028Z,3.69
2022-11-05T07:53:21.429Z,3.72
2022-11-05T07:55:48.101Z,3.77
2022-11-05T07:58:14.975Z,3.80
2022-11-05T08:00:41.929Z,3.85
2022-11-05T08:03:12.566Z,3.91
2022-11-05T08:05:44.867Z,3.99
2022-11-05T08:08:22.062Z,4.04
2022-11-05T08:10:48.679Z,4.11
2022-11-05T08:13:17.895Z,4.18
2022-11-05T08:15:51.722Z,4.28
2022-11-05T08:18:18.616Z,4.38
2022-11-05T08:20:46.915Z,4.51
2022-11-05T08:23:14.498Z,4.61
2022-11-05T08:25:42.243Z,4.70
2022-11-05T08:28:12.301Z,4.79
2022-11-05T08:30:40.671Z,4.88
2022-11-05T08:33:18.356Z,4.96
2022-11-05T08:35:48.386Z,5.03
2022-11-05T08:47:11.142Z,5.38
2022-11-05T09:18:38.972Z,6.30
2022-11-05T09:21:07.854Z,6.35
2022-11-05T09:23:37.362Z,6.42
2022-11-05T09:47:53.813Z,7.04
2022-11-05T09:50:34.988Z,7.16
2022-11-05T09:53:02.393Z,7.23
2022-11-05T09:55:33.799Z,7.28
2022-11-05T09:58:04.663Z,7.33
2022-11-05T10:00:32.442Z,7.40
2022-11-05T10:03:04.480Z,7.43
2022-11-05T10:05:33.799Z,7.48
2022-11-05T10:08:22.816Z,7.55
2022-11-05T10:10:53.778Z,7.59
2022-11-05T10:13:26.585Z,7.64
2022-11-05T10:16:00.813Z,7.70
2022-11-05T10:18:39.594Z,7.78
2022-11-05T10:21:07.704Z,7.84
2022-11-05T10:23:34.505Z,7.92
2022-11-05T10:26:10.656Z,7.98
2022-11-05T10:28:37.445Z,8.01
2022-11-05T10:31:08.563Z,8.04
2022-11-05T10:33:47.700Z,8.10
2022-11-05T10:36:23.489Z,8.17
2022-11-05T10:38:51.674Z,8.23
2022-11-05T10:41:32.070Z,8.30
2022-11-05T10:44:16.061Z,8.34
2022-11-05T10:47:07.016Z,8.39
2022-11-05T10:49:57.650Z,8.46
2022-11-05T10:52:33.818Z,8.55
2022-11-05T10:55:04.543Z,8.60
2022-11-05T10:57:40.378Z,8.64
2022-11-05T11:00:19.595Z,8.67
2022-11-05T11:03:05.656Z,8.72
2022-11-05T11:05:38.003Z,8.77
2022-11-05T11:08:10.837Z,8.82
2022-11-05T11:10:52.663Z,8.87
2022-11-05T11:13:24.818Z,8.93
2022-11-05T11:15:51.637Z,8.96
2022-11-05T11:18:33.374Z,9.00
2022-11-05T11:21:24.191Z,9.09
2022-11-05T11:24:23.025Z,9.13
2022-11-05T11:26:50.347Z,9.19
2022-11-05T11:29:28.622Z,9.24
2022-11-05T11:31:58.068Z,9.31
2022-11-05T11:34:40.651Z,9.37
2022-11-05T11:37:19.198Z,9.39
2022-11-05T11:39:50.848Z,9.43
2022-11-05T11:42:31.641Z,9.48
2022-11-05T11:45:02.740Z,9.51
2022-11-05T11:47:30.630Z,9.54
2022-11-05T11:49:59.766Z,9.55
2022-11-05T11:52:31.075Z,9.56
2022-11-05T11:55:28.110Z,9.60
2022-11-05T11:58:10.789Z,9.55
2022-11-05T12:00:48.545Z,9.53
2022-11-05T12:03:30.884Z,9.59
2022-11-05T12:06:10.078Z,9.61
2022-11-05T12:08:59.363Z,9.62
2022-11-05T12:11:53.283Z,9.63
2022-11-05T12:14:45.197Z,9.66
2022-11-05T12:17:32.482Z,9.68
2022-11-05T12:20:20.801Z,9.73
2022-11-05T12:23:13.027Z,9.75
2022-11-05T12:26:00.021Z,9.78
2022-11-05T12:29:17.144Z,9.79
2022-11-05T12:32:10.891Z,9.79
2022-11-05T12:35:02.889Z,9.80
2022-11-05T12:37:33.585Z,9.82
2022-11-05T12:40:16.418Z,9.83
2022-11-05T12:43:11.538Z,9.83
2022-11-05T12:46:09.889Z,9.85
2022-11-05T12:48:52.223Z,9.83
2022-11-05T12:51:44.677Z,9.87
2022-11-05T12:54:33.650Z,9.88
2022-11-05T12:57:03.828Z,9.92
2022-11-05T12:59:53.133Z,9.91
2022-11-05T13:02:31.012Z,9.94
2022-11-05T13:05:08.223Z,9.95
2022-11-05T13:07:44.853Z,9.97
2022-11-05T13:10:21.769Z,9.99
2022-11-05T13:12:57.608Z,9.97
2022-11-05T13:15:31.503Z,10.01
2022-11-05T13:18:00.631Z,10.01
2022-11-05T13:20:39.920Z,10.00
2022-11-05T13:23:30.960Z,9.98
2022-11-05T13:26:20.616Z,9.97
2022-11-05T13:29:11.646Z,9.95
2022-11-05T13:32:03.341Z,9.95
2022-11-05T13:34:37.459Z,9.92
2022-11-05T13:37:27.359Z,9.91
2022-11-05T13:39:57.544Z,9.90
2022-11-05T13:42:54.709Z,9.91
2022-11-05T13:45:26.945Z,9.91
2022-11-05T13:48:31.602Z,9.91
2022-11-05T13:51:04.943Z,9.91
2022-11-05T13:54:09.636Z,9.91
2022-11-05T13:57:05.336Z,9.90
2022-11-05T13:59:49.796Z,9.88
2022-11-05T14:02:21.876Z,9.90
2022-11-05T14:04:59.630Z,9.93
2022-11-05T14:07:35.060Z,9.96
2022-11-05T14:10:25.417Z,9.95
2022-11-05T14:12:54.978Z,9.92
2022-11-05T14:15:26.079Z,9.89
2022-11-05T14:17:57.760Z,9.88
2022-11-05T14:20:31.934Z,9.85
2022-11-05T14:23:24.691Z,9.83
2022-11-05T14:25:52.911Z,9.79
2022-11-05T14:28:38.334Z,9.75
2022-11-05T14:31:47.273Z,9.72
2022-11-05T14:34:14.610Z,9.70
2022-11-05T14:37:01.743Z,9.70
2022-11-05T14:39:30.729Z,9.71
2022-11-05T14:41:59.794Z,9.69
2022-11-05T14:44:28.160Z,9.71
2022-11-05T14:47:03.059Z,9.68
2022-11-05T14:49:40.189Z,9.65
2022-11-05T14:52:11.645Z,9.63
2022-11-05T14:54:52.068Z,9.64
2022-11-05T14:57:40.759Z,9.63
2022-11-05T15:00:40.547Z,9.58
2022-11-05T15:03:45.956Z,9.55
2022-11-05T15:06:35.647Z,9.51
2022-11-05T15:09:18.982Z,9.45
2022-11-05T15:11:54.869Z,9.41
2022-11-05T15:17:53.342Z,9.33
2022-11-05T15:20:51.625Z,9.30
2022-11-05T15:23:22.054Z,9.26
2022-11-05T15:26:19.223Z,9.30
2022-11-05T15:28:51.471Z,9.27
2022-11-05T15:31:26.639Z,9.23
2022-11-05T15:34:16.377Z,9.19
2022-11-05T15:36:54.895Z,9.18
2022-11-05T15:39:46.668Z,9.13
2022-11-05T15:42:16.440Z,9.09
2022-11-05T15:44:45.747Z,9.05
2022-11-05T15:47:20.542Z,9.04
2022-11-05T15:50:01.991Z,8.96
2022-11-05T15:52:37.171Z,8.91
2022-11-05T15:55:19.889Z,8.87
2022-11-05T15:57:51.173Z,8.85
2022-11-05T16:00:37.288Z,8.82
2022-11-05T16:03:12.382Z,8.81
2022-11-05T16:05:43.927Z,8.77
2022-11-05T16:08:23.900Z,8.76
2022-11-05T16:10:54.426Z,8.74
2022-11-05T16:13:35.314Z,8.71
2022-11-05T16:16:13.387Z,8.70
2022-11-05T16:18:40.713Z,8.67
2022-11-05T16:21:25.146Z,8.66
2022-11-05T16:23:56.690Z,8.65
2022-11-05T16:27:01.282Z,8.63
2022-11-05T16:29:35.543Z,8.61
2022-11-05T16:32:15.741Z,8.60
2022-11-05T16:34:48.120Z,8.57
2022-11-05T16:37:17.214Z,8.57
2022-11-05T16:39:43.884Z,8.55
2022-11-05T16:42:23.089Z,8.54
2022-11-05T16:44:51.623Z,8.53
2022-11-05T16:47:22.073Z,8.52
2022-11-05T16:49:49.828Z,8.50
2022-11-05T16:52:16.941Z,8.53
2022-11-05T16:54:44.923Z,8.46
2022-11-05T16:57:32.597Z,8.50
2022-11-05T17:00:00.979Z,8.48
2022-11-05T17:02:31.717Z,8.48
2022-11-05T17:05:00.769Z,8.47
2022-11-05T17:07:27.847Z,8.47
2022-11-05T17:09:55.890Z,8.45
2022-11-05T17:12:22.911Z,8.44
2022-11-05T17:14:49.724Z,8.43
2022-11-05T17:17:16.430Z,8.42
2022-11-05T17:19:43.441Z,8.41
2022-11-05T17:22:10.396Z,8.41
2022-11-05T17:24:37.483Z,8.41
2022-11-05T17:27:03.977Z,8.39
2022-11-05T17:29:30.910Z,8.38
2022-11-05T17:31:57.666Z,8.38
2022-11-05T17:34:24.701Z,8.35
2022-11-05T17:36:54.212Z,8.34
2022-11-05T17:39:21.017Z,8.34
2022-11-05T17:41:48.859Z,8.34
2022-11-05T17:44:18.022Z,8.32
2022-11-05T17:46:45.379Z,8.32
2022-11-05T17:49:11.979Z,8.32
2022-11-05T17:51:38.963Z,8.30
2022-11-05T17:54:07.494Z,8.28
2022-11-05T17:56:41.680Z,8.26
2022-11-05T17:59:10.077Z,8.21
2022-11-05T18:01:41.600Z,8.18
2022-11-05T18:04:09.281Z,8.18
2022-11-05T18:06:43.348Z,8.17
2022-11-05T18:09:11.343Z,8.16
2022-11-05T18:11:38.392Z,8.12
2022-11-05T18:14:05.400Z,8.10
2022-11-05T18:16:32.680Z,8.10
2022-11-05T18:18:59.551Z,8.08
2022-11-05T18:21:26.415Z,8.07
2022-11-05T18:23:53.024Z,8.05
2022-11-05T18:26:19.700Z,8.03
2022-11-05T18:28:46.581Z,8.03
2022-11-05T18:31:20.457Z,8.03
2022-11-05T18:33:48.124Z,8.01
2022-11-05T18:36:23.117Z,8.01
2022-11-05T18:38:49.959Z,7.97
2022-11-05T18:41:23.148Z,7.95
2022-11-05T18:43:53.372Z,7.94
2022-11-05T18:46:51.258Z,7.93
2022-11-05T18:49:07.380Z,7.92
2022-11-05T18:51:34.030Z,7.91
2022-11-05T18:54:00.953Z,7.89
2022-11-05T18:56:28.410Z,7.88
2022-11-05T18:59:22.042Z,7.87
2022-11-05T19:01:43.956Z,7.84
2022-11-05T19:04:11.411Z,7.86
2022-11-05T19:06:38.508Z,7.85
2022-11-05T19:09:08.499Z,7.85
2022-11-05T19:11:35.782Z,7.83
2022-11-05T19:14:02.867Z,7.82
2022-11-05T19:16:31.425Z,7.83
2022-11-05T19:19:00.796Z,7.84
2022-11-05T19:21:28.104Z,7.84
2022-11-05T19:24:00.512Z,7.83
2022-11-05T19:26:29.064Z,7.85
2022-11-05T19:29:00.814Z,7.84
2022-11-05T19:31:27.803Z,7.84
2022-11-05T19:33:54.412Z,7.83
2022-11-05T19:36:22.857Z,7.81
2022-11-05T19:38:54.796Z,7.82
2022-11-05T19:41:22.377Z,7.82
2022-11-05T19:43:48.962Z,7.82
2022-11-05T19:46:17.647Z,7.84
2022-11-05T19:48:44.858Z,7.85
2022-11-05T19:51:20.882Z,7.85
2022-11-05T19:53:48.144Z,7.86
2022-11-05T19:56:25.518Z,7.86
2022-11-05T19:58:53.889Z,7.91
2022-11-05T20:01:22.874Z,7.93
2022-11-05T20:03:50.870Z,7.95
2022-11-05T20:06:25.738Z,7.98
2022-11-05T20:09:19.972Z,7.99
2022-11-05T20:11:41.492Z,7.98
2022-11-05T20:14:10.418Z,8.00
2022-11-05T20:16:39.833Z,8.03
2022-11-05T20:19:09.848Z,8.06
2022-11-05T20:21:37.618Z,8.08
2022-11-05T20:24:05.156Z,8.10
2022-11-05T20:26:32.475Z,8.10
2022-11-05T20:28:59.597Z,8.10
2022-11-05T20:31:26.172Z,8.11
2022-11-05T20:33:53.867Z,8.11
2022-11-05T20:36:23.873Z,8.11
2022-11-05T20:38:53.039Z,8.12
2022-11-05T20:41:21.776Z,8.11
2022-11-05T20:43:48.453Z,8.11
2022-11-05T20:46:18.200Z,8.11
2022-11-05T20:48:45.869Z,8.11
2022-11-05T20:51:16.297Z,8.10
2022-11-05T20:53:43.746Z,8.08
2022-11-05T20:56:18.975Z,8.07
2022-11-05T20:58:47.483Z,8.07
2022-11-05T21:01:16.636Z,8.07
2022-11-05T21:03:44.910Z,8.05
2022-11-05T21:06:13.214Z,8.04
2022-11-05T21:08:40.498Z,8.02
2022-11-05T21:11:08.063Z,8.01
2022-11-05T21:13:35.816Z,7.98
2022-11-05T21:16:05.621Z,7.97
2022-11-05T21:18:35.075Z,7.96
2022-11-05T21:21:08.722Z,7.94
2022-11-05T21:23:35.795Z,7.93
2022-11-05T21:26:05.729Z,7.91
2022-11-05T21:28:32.980Z,7.89
2022-11-05T21:31:04.495Z,7.86
2022-11-05T21:33:32.261Z,7.83
2022-11-05T21:35:59.616Z,7.81
2022-11-05T21:38:26.530Z,7.81
2022-11-05T21:40:53.042Z,7.79
2022-11-05T21:43:19.699Z,7.76
2022-11-05T21:45:46.335Z,7.77
2022-11-05T21:48:15.455Z,7.73
2022-11-05T21:51:18.067Z,7.71
2022-11-05T21:54:03.584Z,7.69
2022-11-05T21:56:49.683Z,7.68
2022-11-05T21:59:38.935Z,7.65
2022-11-05T22:02:09.799Z,7.63
2022-11-05T22:04:45.139Z,7.64
2022-11-05T22:07:14.634Z,7.62
2022-11-05T22:09:41.466Z,7.61
2022-11-05T22:12:08.781Z,7.60
2022-11-05T22:14:36.544Z,7.60
2022-11-05T22:17:03.930Z,7.62
2022-11-05T22:19:31.445Z,7.61
2022-11-05T22:21:59.121Z,7.61
2022-11-05T22:24:28.108Z,7.60
2022-11-05T22:26:54.734Z,7.59
2022-11-05T22:29:21.339Z,7.59
2022-11-05T22:31:47.950Z,7.59
2022-11-05T22:34:14.629Z,7.59
2022-11-05T22:36:41.697Z,7.58
2022-11-05T22:39:08.510Z,7.56
2022-11-05T22:41:35.325Z,7.53
2022-11-05T22:44:03.323Z,7.55
2022-11-05T22:46:30.793Z,7.57
2022-11-05T22:49:00.176Z,7.55
2022-11-05T22:51:29.972Z,7.56
2022-11-05T22:53:58.000Z,7.57
2022-11-05T22:56:27.515Z,7.57
2022-11-05T22:58:54.711Z,7.58
2022-11-05T23:01:22.924Z,7.58
2022-11-05T23:03:52.282Z,7.58
2022-11-05T23:06:43.314Z,7.57
2022-11-05T23:09:31.789Z,7.55
2022-11-05T23:11:58.875Z,7.54
2022-11-05T23:14:26.533Z,7.52
2022-11-05T23:17:12.470Z,7.52
2022-11-05T23:19:58.880Z,7.52
2022-11-05T23:22:48.109Z,7.55
2022-11-05T23:25:17.749Z,7.54
2022-11-05T23:27:46.031Z,7.56
2022-11-05T23:30:19.565Z,7.56
2022-11-05T23:32:46.726Z,7.53
2022-11-05T23:35:13.963Z,7.55
2022-11-05T23:37:59.643Z,7.55
2022-11-05T23:40:29.313Z,7.54
2022-11-05T23:43:15.682Z,7.53
2022-11-05T23:46:02.911Z,7.50
2022-11-05T23:48:32.722Z,7.48
2022-11-05T23:51:08.537Z,7.49
2022-11-05T23:53:39.423Z,7.48
2022-11-05T23:56:10.136Z,7.49
2022-11-05T23:58:39.116Z,7.48
